createdAt,value
2023-01-21T00:01:12.348Z,17.73
2023-01-21T00:03:39.901Z,20.02
2023-01-21T00:06:08.251Z,16.30
2023-01-21T00:08:35.750Z,15.75
2023-01-21T00:11:14.494Z,13.38
2023-01-21T00:13:43.119Z,13.50
2023-01-21T00:16:11.907Z,14.10
2023-01-21T00:18:39.288Z,13.88
2023-01-21T00:21:06.814Z,14.27
2023-01-21T00:23:34.233Z,14.40
2023-01-21T00:26:03.741Z,12.00
2023-01-21T00:28:33.436Z,10.77
2023-01-21T00:31:03.353Z,10.93
2023-01-21T00:33:31.233Z,10.07
2023-01-21T00:36:04.009Z,10.35
2023-01-21T00:38:32.121Z,10.40
2023-01-21T00:41:01.186Z,10.00
2023-01-21T00:43:29.095Z,9.90
2023-01-21T00:45:57.263Z,10.68
2023-01-21T00:48:25.329Z,10.95
2023-01-21T00:50:54.633Z,11.02
2023-01-21T00:53:23.701Z,10.73
2023-01-21T00:55:51.114Z,11.07
2023-01-21T00:58:18.564Z,10.77
2023-01-21T01:00:46.164Z,10.00
2023-01-21T01:03:13.494Z,10.50
2023-01-21T01:05:40.848Z,10.73
2023-01-21T01:08:08.199Z,10.32
2023-01-21T01:10:37.499Z,9.88
2023-01-21T01:13:04.900Z,8.93
2023-01-21T01:15:32.304Z,9.13
2023-01-21T01:17:59.701Z,8.73
2023-01-21T01:20:27.100Z,8.10
2023-01-21T01:22:54.520Z,7.47
2023-01-21T01:25:21.999Z,8.30
2023-01-21T01:27:49.356Z,6.95
2023-01-21T01:30:17.192Z,6.95
2023-01-21T01:32:44.734Z,6.82
2023-01-21T01:35:12.343Z,6.72
2023-01-21T01:37:39.767Z,6.38
2023-01-21T01:40:07.891Z,6.30
2023-01-21T01:42:35.227Z,6.07
2023-01-21T01:45:16.768Z,6.53
2023-01-21T01:47:58.202Z,6.53
2023-01-21T01:50:30.079Z,6.35
2023-01-21T01:53:00.430Z,6.22
2023-01-21T01:55:33.863Z,6.63
2023-01-21T01:58:05.669Z,6.28
2023-01-21T02:03:18.890Z,6.30
2023-01-21T02:05:48.039Z,6.07
2023-01-21T02:08:15.971Z,5.65
2023-01-21T02:10:43.534Z,5.82
2023-01-21T02:13:11.914Z,5.53
2023-01-21T02:15:54.050Z,5.25
2023-01-21T02:18:33.947Z,5.53
2023-01-21T02:21:20.060Z,4.43
2023-01-21T02:24:07.082Z,4.63
2023-01-21T02:26:57.796Z,4.63
2023-01-21T02:29:57.968Z,4.18
2023-01-21T02:33:02.600Z,3.60
2023-01-21T02:35:35.217Z,3.78
2023-01-21T02:38:12.256Z,2.70
2023-01-21T02:41:10.743Z,3.42
2023-01-21T02:43:59.351Z,3.33
2023-01-21T02:46:40.133Z,2.90
2023-01-21T02:49:16.193Z,2.67
2023-01-21T02:51:50.169Z,3.08
2023-01-21T02:54:39.473Z,2.75
2023-01-21T02:57:14.890Z,2.30
2023-01-21T02:59:47.678Z,1.80
2023-01-21T03:02:24.550Z,1.90
2023-01-21T03:05:07.136Z,1.60
2023-01-21T03:07:37.145Z,1.60
2023-01-21T03:10:19.708Z,1.70
2023-01-21T03:13:04.193Z,2.50
2023-01-21T03:15:54.752Z,2.15
2023-01-21T03:18:39.560Z,1.38
2023-01-21T03:21:13.257Z,1.50
2023-01-21T03:23:45.226Z,1.25
2023-01-21T03:26:16.884Z,1.35
2023-01-21T03:28:47.007Z,1.10
2023-01-21T03:31:19.525Z,1.27
2023-01-21T03:33:50.244Z,0.85
2023-01-21T03:36:42.165Z,1.08
2023-01-21T03:39:40.027Z,1.20
2023-01-21T03:42:08.525Z,1.15
2023-01-21T03:44:36.879Z,0.90
2023-01-21T03:47:31.452Z,0.88
2023-01-21T03:50:14.205Z,0.90
2023-01-21T03:52:43.997Z,0.90
2023-01-21T03:55:13.913Z,0.90
2023-01-21T03:57:41.546Z,0.75
2023-01-21T04:00:10.085Z,0.70
2023-01-21T04:02:37.609Z,0.70
2023-01-21T04:05:05.563Z,0.68
2023-01-21T04:07:33.148Z,0.80
2023-01-21T04:10:00.642Z,0.60
2023-01-21T04:12:28.171Z,0.68
2023-01-21T04:14:55.587Z,0.82
2023-01-21T04:17:23.134Z,0.70
2023-01-21T04:19:50.672Z,0.98
2023-01-21T04:22:18.277Z,0.88
2023-01-21T04:24:45.798Z,0.80
2023-01-21T04:27:13.285Z,0.85
2023-01-21T04:29:40.718Z,0.80
2023-01-21T04:32:08.244Z,0.60
2023-01-21T04:34:35.687Z,0.77
2023-01-21T04:37:03.260Z,1.10
2023-01-21T04:39:30.750Z,0.90
2023-01-21T04:41:58.237Z,0.85
2023-01-21T04:44:25.708Z,0.98
2023-01-21T04:46:53.174Z,0.90
2023-01-21T04:49:20.611Z,1.00
2023-01-21T04:51:48.085Z,0.85
2023-01-21T04:54:15.561Z,0.80
2023-01-21T04:56:43.086Z,0.88
2023-01-21T04:59:11.290Z,1.00
2023-01-21T05:01:38.752Z,0.80
2023-01-21T05:04:06.188Z,0.80
2023-01-21T05:06:33.690Z,0.95
2023-01-21T05:09:01.133Z,1.20
2023-01-21T05:11:28.677Z,1.13
2023-01-21T05:13:56.102Z,1.10
2023-01-21T05:16:23.620Z,1.10
2023-01-21T05:18:51.097Z,0.95
2023-01-21T05:21:18.526Z,1.20
2023-01-21T05:23:45.987Z,0.93
2023-01-21T05:26:13.565Z,0.90
2023-01-21T05:28:41.011Z,0.98
2023-01-21T05:31:08.605Z,0.80
2023-01-21T05:33:36.245Z,0.80
2023-01-21T05:36:04.812Z,0.90
2023-01-21T05:38:32.381Z,1.00
2023-01-21T05:41:01.556Z,1.10
2023-01-21T05:43:29.708Z,0.85
2023-01-21T05:45:57.739Z,0.82
2023-01-21T05:48:25.780Z,1.10
2023-01-21T05:50:53.327Z,1.00
2023-01-21T05:53:21.147Z,1.05
2023-01-21T05:55:52.254Z,1.10
2023-01-21T05:58:20.347Z,1.20
2023-01-21T06:00:48.839Z,1.20
2023-01-21T06:03:17.495Z,0.93
2023-01-21T06:05:45.812Z,1.15
2023-01-21T06:08:13.413Z,1.25
2023-01-21T06:10:41.103Z,1.13
2023-01-21T06:13:12.262Z,0.82
2023-01-21T06:15:40.056Z,1.15
2023-01-21T06:18:07.935Z,1.00
2023-01-21T06:20:36.557Z,1.20
2023-01-21T06:23:04.191Z,1.10
2023-01-21T06:25:32.428Z,1.52
2023-01-21T06:28:01.234Z,1.40
2023-01-21T06:30:28.788Z,1.48
2023-01-21T06:32:56.237Z,1.10
2023-01-21T06:35:23.760Z,1.25
2023-01-21T06:37:51.537Z,1.23
2023-01-21T06:40:19.481Z,1.20
2023-01-21T06:42:48.410Z,1.15
2023-01-21T06:45:16.815Z,0.93
2023-01-21T06:47:45.226Z,0.90
2023-01-21T06:50:16.028Z,0.80
2023-01-21T06:52:45.935Z,0.75
2023-01-21T06:55:14.359Z,1.05
2023-01-21T06:57:43.604Z,0.75
2023-01-21T07:00:12.553Z,0.77
2023-01-21T07:02:40.098Z,0.80
2023-01-21T07:05:08.059Z,1.10
2023-01-21T07:07:35.987Z,0.80
2023-01-21T07:10:04.167Z,0.80
2023-01-21T07:12:31.948Z,0.85
2023-01-21T07:14:59.458Z,0.90
2023-01-21T07:17:27.029Z,1.10
2023-01-21T07:19:54.578Z,1.23
2023-01-21T07:22:22.004Z,1.20
2023-01-21T07:24:49.590Z,1.00
2023-01-21T07:27:17.449Z,0.98
2023-01-21T07:29:45.033Z,0.98
2023-01-21T07:32:12.823Z,0.90
2023-01-21T07:34:40.489Z,1.20
2023-01-21T07:37:08.117Z,0.90
2023-01-21T07:39:35.566Z,1.30
2023-01-21T07:42:03.290Z,1.30
2023-01-21T07:44:34.730Z,1.27
2023-01-21T07:47:02.257Z,1.48
2023-01-21T07:49:29.838Z,1.30
2023-01-21T07:51:57.852Z,1.85
2023-01-21T07:54:25.597Z,1.20
2023-01-21T07:56:53.060Z,1.38
2023-01-21T07:59:21.560Z,0.85
2023-01-21T08:01:49.158Z,0.98
2023-01-21T08:04:16.940Z,1.13
2023-01-21T08:06:44.433Z,1.10
2023-01-21T08:09:11.889Z,1.10
2023-01-21T08:11:39.371Z,1.05
2023-01-21T08:14:06.853Z,1.10
2023-01-21T08:16:34.406Z,1.10
2023-01-21T08:19:02.128Z,1.10
2023-01-21T08:21:29.646Z,1.10
2023-01-21T08:23:57.392Z,1.40
2023-01-21T08:26:25.821Z,1.35
2023-01-21T08:28:55.152Z,1.25
2023-01-21T08:31:23.817Z,1.48
2023-01-21T08:33:51.364Z,1.33
2023-01-21T08:36:18.908Z,1.27
2023-01-21T08:38:48.594Z,1.42
2023-01-21T08:41:17.827Z,1.85
2023-01-21T08:43:45.834Z,1.90
2023-01-21T08:46:14.423Z,2.03
2023-01-21T08:48:41.980Z,1.60
2023-01-21T08:51:09.493Z,1.10
2023-01-21T08:53:37.102Z,0.75
2023-01-21T08:56:05.352Z,1.10
2023-01-21T08:58:33.348Z,1.73
2023-01-21T09:01:07.723Z,1.70
2023-01-21T09:03:35.387Z,2.00
2023-01-21T09:06:04.759Z,2.80
2023-01-21T09:08:32.676Z,4.90
2023-01-21T09:11:01.743Z,4.82
2023-01-21T09:13:32.131Z,5.20
2023-01-21T09:16:00.449Z,4.88
2023-01-21T09:18:28.295Z,4.03
2023-01-21T09:21:00.850Z,4.15
2023-01-21T09:23:28.563Z,4.15
2023-01-21T09:26:01.338Z,4.10
2023-01-21T09:28:30.426Z,3.65
2023-01-21T09:31:00.200Z,3.72
2023-01-21T09:33:29.324Z,3.45
2023-01-21T09:35:59.083Z,3.78
2023-01-21T09:38:28.101Z,3.90
2023-01-21T09:40:58.758Z,3.67
2023-01-21T09:43:32.799Z,3.30
2023-01-21T09:46:04.205Z,3.28
2023-01-21T09:48:38.036Z,3.05
2023-01-21T09:51:25.616Z,3.05
2023-01-21T09:53:57.173Z,2.80
2023-01-21T09:56:35.032Z,2.90
2023-01-21T09:59:27.158Z,2.92
2023-01-21T10:02:00.339Z,2.63
2023-01-21T10:04:48.106Z,2.60
2023-01-21T10:07:23.802Z,2.80
2023-01-21T10:10:07.066Z,2.80
2023-01-21T10:12:46.602Z,2.60
2023-01-21T10:15:38.161Z,2.38
2023-01-21T10:18:34.921Z,2.90
2023-01-21T10:21:21.401Z,3.17
2023-01-21T10:24:02.992Z,2.95
2023-01-21T10:26:34.069Z,3.15
2023-01-21T10:29:02.002Z,3.60
2023-01-21T10:31:37.936Z,3.40
2023-01-21T10:34:17.784Z,3.13
2023-01-21T10:36:57.993Z,2.88
2023-01-21T10:39:31.501Z,2.97
2023-01-21T10:42:10.215Z,3.00
2023-01-21T10:45:15.075Z,2.90
2023-01-21T10:47:52.476Z,3.13
2023-01-21T10:50:38.300Z,3.10
2023-01-21T10:53:34.470Z,3.30
2023-01-21T10:56:42.415Z,2.65
2023-01-21T10:59:15.299Z,2.90
2023-01-21T11:01:49.190Z,2.30
2023-01-21T11:04:22.860Z,2.70
2023-01-21T11:07:03.022Z,2.67
2023-01-21T11:09:34.321Z,2.70
2023-01-21T11:12:03.141Z,2.80
2023-01-21T11:14:30.773Z,3.00
2023-01-21T11:16:58.525Z,3.03
2023-01-21T11:19:31.023Z,3.40
2023-01-21T11:22:05.244Z,4.18
2023-01-21T11:24:43.518Z,4.10
2023-01-21T11:27:23.056Z,3.63
2023-01-21T11:29:50.684Z,3.95
2023-01-21T11:32:22.138Z,4.28
2023-01-21T11:35:11.502Z,3.47
2023-01-21T11:37:38.973Z,3.75
2023-01-21T11:40:26.723Z,3.28
2023-01-21T11:42:56.213Z,3.40
2023-01-21T11:45:36.815Z,2.97
2023-01-21T11:48:21.209Z,2.55
2023-01-21T11:50:48.702Z,2.50
2023-01-21T11:53:18.290Z,2.80
2023-01-21T11:55:49.862Z,2.30
2023-01-21T11:58:38.676Z,2.08
2023-01-21T12:01:11.264Z,2.30
2023-01-21T12:03:42.576Z,2.50
2023-01-21T12:06:17.667Z,2.17
2023-01-21T12:08:50.353Z,1.98
2023-01-21T12:11:22.614Z,1.98
2023-01-21T12:14:11.813Z,1.90
2023-01-21T12:17:07.426Z,1.73
2023-01-21T12:19:47.098Z,1.60
2023-01-21T12:22:36.329Z,2.40
2023-01-21T12:25:08.064Z,2.20
2023-01-21T12:28:06.538Z,2.50
2023-01-21T12:30:55.736Z,2.30
2023-01-21T12:33:32.438Z,2.40
2023-01-21T12:36:13.156Z,2.15
2023-01-21T12:38:49.422Z,2.63
2023-01-21T12:41:18.763Z,3.50
2023-01-21T12:44:31.491Z,3.40
2023-01-21T12:47:05.012Z,4.28
2023-01-21T12:49:51.112Z,3.75
2023-01-21T12:52:40.514Z,3.50
2023-01-21T12:55:21.052Z,4.00
2023-01-21T12:57:56.572Z,4.10
2023-01-21T13:00:32.885Z,3.92
2023-01-21T13:03:25.685Z,4.07
2023-01-21T13:06:02.565Z,4.82
2023-01-21T13:08:54.895Z,4.47
2023-01-21T13:14:30.015Z,4.70
2023-01-21T13:17:03.657Z,5.15
2023-01-21T13:19:31.036Z,4.82
2023-01-21T13:22:26.811Z,5.20
2023-01-21T13:25:11.852Z,5.10
2023-01-21T13:28:14.889Z,4.85
2023-01-21T13:30:51.407Z,5.35
2023-01-21T13:34:00.492Z,4.85
2023-01-21T13:36:55.901Z,4.75
2023-01-21T13:39:40.211Z,4.97
2023-01-21T13:42:53.806Z,4.45
2023-01-21T13:45:30.411Z,4.70
2023-01-21T13:48:09.410Z,4.35
2023-01-21T13:50:57.588Z,4.30
2023-01-21T13:53:39.020Z,4.32
2023-01-21T13:56:15.540Z,4.10
2023-01-21T13:58:57.673Z,4.85
2023-01-21T14:04:05.164Z,5.10
2023-01-21T14:06:42.622Z,4.95
2023-01-21T14:09:18.753Z,5.30
2023-01-21T14:11:57.675Z,4.97
2023-01-21T14:14:35.026Z,5.38
2023-01-21T14:17:17.763Z,4.80
2023-01-21T14:20:09.872Z,4.63
2023-01-21T14:23:08.093Z,4.50
2023-01-21T14:26:03.364Z,4.20
2023-01-21T14:29:01.142Z,4.90
2023-01-21T14:32:04.140Z,4.18
2023-01-21T14:34:54.424Z,5.40
2023-01-21T14:37:33.036Z,5.10
2023-01-21T14:40:11.108Z,5.90
2023-01-21T14:42:49.321Z,5.55
2023-01-21T14:45:26.025Z,5.57
2023-01-21T14:47:55.349Z,5.93
2023-01-21T14:50:55.101Z,5.85
2023-01-21T14:53:27.708Z,5.68
2023-01-21T14:56:17.029Z,5.80
2023-01-21T14:58:47.351Z,5.35
2023-01-21T15:01:31.748Z,6.18
2023-01-21T15:04:02.806Z,6.13
2023-01-21T15:06:30.686Z,6.13
2023-01-21T15:09:00.565Z,6.25
2023-01-21T15:11:40.133Z,6.82
2023-01-21T15:14:19.932Z,6.45
2023-01-21T15:16:48.083Z,6.10
2023-01-21T15:19:16.424Z,6.68
2023-01-21T15:22:00.361Z,6.22
2023-01-21T15:24:36.882Z,6.20
2023-01-21T15:27:26.623Z,6.50
2023-01-21T15:29:53.977Z,7.38
2023-01-21T15:32:24.536Z,8.35
2023-01-21T15:35:01.399Z,8.43
2023-01-21T15:37:31.015Z,7.70
2023-01-21T15:40:01.677Z,7.38
2023-01-21T15:42:58.498Z,7.05
2023-01-21T15:45:32.958Z,7.10
2023-01-21T15:48:42.239Z,7.35
2023-01-21T15:51:16.298Z,7.85
2023-01-21T15:53:55.520Z,7.30
2023-01-21T15:57:02.257Z,7.25
2023-01-21T15:59:35.890Z,7.10
2023-01-21T16:02:24.806Z,7.38
2023-01-21T16:05:17.797Z,7.03
2023-01-21T16:08:27.756Z,7.47
2023-01-21T16:11:02.067Z,7.70
2023-01-21T16:13:32.367Z,7.93
2023-01-21T16:16:21.164Z,7.53
2023-01-21T16:19:03.431Z,7.57
2023-01-21T16:21:35.142Z,7.65
2023-01-21T16:24:08.328Z,7.32
2023-01-21T16:26:36.195Z,7.95
2023-01-21T16:29:11.288Z,7.70
2023-01-21T16:31:51.082Z,7.28
2023-01-21T16:34:45.527Z,7.30
2023-01-21T16:37:24.668Z,7.10
2023-01-21T16:40:16.518Z,6.55
2023-01-21T16:42:44.407Z,6.88
2023-01-21T16:45:17.710Z,7.10
2023-01-21T16:47:53.091Z,7.88
2023-01-21T16:50:32.800Z,7.15
2023-01-21T16:53:07.478Z,7.40
2023-01-21T16:55:45.086Z,7.38
2023-01-21T16:58:32.376Z,7.13
2023-01-21T17:01:11.208Z,6.93
2023-01-21T17:03:39.315Z,7.22
2023-01-21T17:06:10.916Z,7.22
2023-01-21T17:08:39.590Z,7.60
2023-01-21T17:11:10.559Z,7.25
2023-01-21T17:13:48.097Z,7.30
2023-01-21T17:16:25.064Z,6.75
2023-01-21T17:18:57.028Z,7.10
2023-01-21T17:24:15.263Z,7.15
2023-01-21T17:26:56.458Z,7.35
2023-01-21T17:29:29.908Z,7.27
2023-01-21T17:32:06.311Z,8.10
2023-01-21T17:34:35.969Z,7.55
2023-01-21T17:37:41.143Z,7.38
2023-01-21T17:40:24.847Z,7.43
2023-01-21T17:42:52.957Z,9.85
2023-01-21T17:45:38.438Z,10.15
2023-01-21T17:48:10.477Z,9.48
2023-01-21T17:50:46.523Z,7.75
2023-01-21T17:53:27.982Z,8.65
2023-01-21T17:56:06.204Z,8.52
2023-01-21T17:58:36.635Z,8.98
2023-01-21T18:01:04.659Z,9.52
2023-01-21T18:03:32.086Z,9.65
2023-01-21T18:05:59.723Z,10.38
2023-01-21T18:08:27.092Z,9.45
2023-01-21T18:10:54.490Z,10.85
2023-01-21T18:13:22.734Z,9.32
2023-01-21T18:15:51.852Z,9.00
2023-01-21T18:18:24.416Z,8.05
2023-01-21T18:20:52.016Z,7.93
2023-01-21T18:23:20.033Z,7.90
2023-01-21T18:25:49.759Z,7.65
2023-01-21T18:28:20.021Z,8.75
2023-01-21T18:30:49.312Z,8.00
2023-01-21T18:33:17.649Z,8.18
2023-01-21T18:35:47.963Z,7.95
2023-01-21T18:38:22.409Z,8.38
2023-01-21T18:40:49.828Z,8.30
2023-01-21T18:43:18.542Z,9.48
2023-01-21T18:45:45.981Z,8.90
2023-01-21T18:48:15.075Z,9.77
2023-01-21T18:50:42.519Z,9.05
2023-01-21T18:53:10.172Z,8.70
2023-01-21T18:55:37.536Z,8.10
2023-01-21T18:58:14.774Z,8.55
2023-01-21T19:00:42.368Z,9.55
2023-01-21T19:03:13.741Z,9.90
2023-01-21T19:05:44.261Z,11.13
2023-01-21T19:08:19.684Z,12.40
2023-01-21T19:10:46.971Z,13.02
2023-01-21T19:13:14.347Z,9.50
2023-01-21T19:15:42.152Z,10.10
2023-01-21T19:18:11.537Z,10.77
2023-01-21T19:20:41.601Z,9.50
2023-01-21T19:23:16.987Z,8.48
2023-01-21T19:25:52.167Z,9.02
2023-01-21T19:28:20.201Z,10.85
2023-01-21T19:30:49.933Z,11.20
2023-01-21T19:33:17.601Z,11.48
2023-01-21T19:35:45.765Z,12.30
2023-01-21T19:38:16.675Z,11.45
2023-01-21T19:40:45.773Z,11.63
2023-01-21T19:43:14.926Z,11.68
2023-01-21T19:45:43.362Z,11.50
2023-01-21T19:48:13.097Z,11.38
2023-01-21T19:50:40.981Z,11.32
2023-01-21T19:53:13.940Z,10.93
2023-01-21T19:55:43.928Z,10.05
2023-01-21T19:58:19.775Z,10.35
2023-01-21T20:00:49.649Z,13.48
2023-01-21T20:03:22.915Z,13.40
2023-01-21T20:05:53.869Z,13.55
2023-01-21T20:08:27.782Z,16.48
2023-01-21T20:10:55.955Z,15.30
2023-01-21T20:13:23.600Z,16.73
2023-01-21T20:15:52.473Z,16.02
2023-01-21T20:18:28.681Z,14.98
2023-01-21T20:20:56.133Z,15.60
2023-01-21T20:23:25.228Z,15.10
2023-01-21T20:25:56.313Z,13.38
2023-01-21T20:28:25.287Z,12.60
2023-01-21T20:30:54.682Z,12.68
2023-01-21T20:33:23.969Z,12.70
2023-01-21T20:35:53.743Z,10.32
2023-01-21T20:38:32.791Z,10.23
2023-01-21T20:41:01.656Z,10.80
2023-01-21T20:43:29.923Z,11.75
2023-01-21T20:46:02.982Z,11.38
2023-01-21T20:48:34.800Z,12.27
2023-01-21T20:51:03.267Z,12.23
2023-01-21T20:53:31.141Z,11.65
2023-01-21T20:56:01.131Z,12.70
2023-01-21T20:58:28.694Z,11.93
2023-01-21T21:00:56.182Z,11.68
2023-01-21T21:03:23.712Z,11.10
2023-01-21T21:05:51.365Z,10.13
2023-01-21T21:08:21.750Z,10.00
2023-01-21T21:10:52.989Z,10.68
2023-01-21T21:13:20.670Z,10.45
2023-01-21T21:15:49.896Z,10.68
2023-01-21T21:18:17.349Z,9.27
2023-01-21T21:20:44.762Z,9.82
2023-01-21T21:23:14.431Z,10.60
2023-01-21T21:25:45.138Z,10.10
2023-01-21T21:28:15.090Z,10.27
2023-01-21T21:30:44.289Z,11.40
2023-01-21T21:33:20.590Z,10.18
2023-01-21T21:35:49.706Z,10.85
2023-01-21T21:38:21.999Z,12.48
2023-01-21T21:40:53.217Z,13.05
2023-01-21T21:43:33.148Z,11.48
2023-01-21T21:46:31.373Z,11.65
2023-01-21T21:48:58.934Z,11.80
2023-01-21T21:51:26.653Z,11.32
2023-01-21T21:53:54.172Z,12.48
2023-01-21T21:56:23.604Z,11.70
2023-01-21T21:58:51.961Z,11.88
2023-01-21T22:01:24.912Z,11.48
2023-01-21T22:03:53.368Z,11.68
2023-01-21T22:06:22.523Z,12.27
2023-01-21T22:08:49.969Z,13.13
2023-01-21T22:11:19.444Z,14.70
2023-01-21T22:13:51.281Z,14.18
2023-01-21T22:18:47.749Z,14.25
2023-01-21T22:21:23.295Z,13.68
2023-01-21T22:23:51.091Z,13.98
2023-01-21T22:26:21.310Z,13.50
2023-01-21T22:28:51.256Z,13.90
2023-01-21T22:31:27.275Z,13.40
2023-01-21T22:33:55.697Z,12.73
2023-01-21T22:36:25.480Z,12.07
2023-01-21T22:38:53.355Z,14.00
2023-01-21T22:41:22.763Z,12.40
2023-01-21T22:43:50.764Z,13.93
2023-01-21T22:46:24.294Z,13.73
2023-01-21T22:48:53.438Z,13.80
2023-01-21T22:51:22.257Z,14.50
2023-01-21T22:53:49.955Z,16.02
2023-01-21T22:56:19.857Z,14.48
2023-01-21T22:58:47.580Z,14.82
2023-01-21T23:01:31.508Z,14.50
2023-01-21T23:04:00.093Z,14.75
2023-01-21T23:06:28.221Z,13.40
2023-01-21T23:08:55.788Z,14.25
2023-01-21T23:11:23.441Z,13.38
2023-01-21T23:13:53.175Z,12.90
2023-01-21T23:16:21.334Z,12.82
2023-01-21T23:18:48.870Z,12.27
2023-01-21T23:21:18.886Z,12.40
2023-01-21T23:23:46.357Z,12.93
2023-01-21T23:26:15.010Z,12.82
2023-01-21T23:28:43.316Z,11.98
2023-01-21T23:31:17.110Z,11.95
2023-01-21T23:33:44.740Z,12.80
2023-01-21T23:36:15.399Z,11.55
2023-01-21T23:38:43.455Z,12.27
2023-01-21T23:41:13.913Z,12.65
2023-01-21T23:43:42.008Z,11.95
2023-01-21T23:46:16.431Z,12.00
2023-01-21T23:48:44.067Z,11.32
2023-01-21T23:51:13.806Z,12.30
2023-01-21T23:53:41.352Z,11.60
2023-01-21T23:56:24.435Z,11.50
2023-01-21T23:58:52.426Z,10.60
